createdAt,value
2018-04-14T00:00:51.984Z,89.05
2018-04-14T00:01:54.516Z,85.35
2018-04-14T00:02:57.076Z,86.60
2018-04-14T00:03:59.604Z,83.93
2018-04-14T00:05:02.908Z,90.15
2018-04-14T00:06:05.434Z,81.72
2018-04-14T00:07:08.008Z,82.90
2018-04-14T00:08:10.527Z,85.55
2018-04-14T00:09:13.111Z,84.07
2018-04-14T00:10:15.639Z,82.15
2018-04-14T00:11:18.205Z,86.22
2018-04-14T00:12:21.487Z,74.93
2018-04-14T00:13:24.021Z,76.18
2018-04-14T00:14:26.587Z,81.10
2018-04-14T00:15:29.111Z,75.57
2018-04-14T00:16:31.628Z,81.05
2018-04-14T00:17:34.156Z,81.82
2018-04-14T00:18:36.695Z,73.93
2018-04-14T00:19:39.270Z,67.70
2018-04-14T00:20:41.787Z,68.85
2018-04-14T00:21:44.316Z,69.87
2018-04-14T00:22:46.855Z,66.93
2018-04-14T00:23:49.384Z,71.43
2018-04-14T00:24:51.960Z,68.78
2018-04-14T00:25:55.253Z,64.40
2018-04-14T00:26:58.539Z,62.28
2018-04-14T00:28:01.833Z,61.67
2018-04-14T00:29:04.375Z,64.93
2018-04-14T00:30:07.732Z,63.60
2018-04-14T00:31:10.260Z,66.30
2018-04-14T00:32:12.793Z,58.10
2018-04-14T00:33:15.319Z,61.63
2018-04-14T00:34:17.853Z,57.70
2018-04-14T00:35:20.412Z,66.15
2018-04-14T00:36:23.704Z,60.42
2018-04-14T00:37:26.234Z,58.45
2018-04-14T00:38:28.801Z,57.47
2018-04-14T00:39:31.328Z,63.42
2018-04-14T00:40:33.897Z,61.03
2018-04-14T00:41:36.437Z,60.15
2018-04-14T00:42:38.964Z,65.22
2018-04-14T00:43:41.527Z,58.03
2018-04-14T00:44:44.082Z,60.12
2018-04-14T00:45:46.645Z,62.58
2018-04-14T00:46:49.172Z,68.40
2018-04-14T00:47:51.704Z,70.20
2018-04-14T00:48:54.364Z,61.50
2018-04-14T00:49:56.914Z,64.80
2018-04-14T00:50:59.442Z,62.33
2018-04-14T00:52:01.959Z,64.25
2018-04-14T00:53:16.170Z,62.97
2018-04-14T00:54:18.732Z,64.15
2018-04-14T00:55:21.308Z,66.53
2018-04-14T00:56:23.870Z,65.37
2018-04-14T00:57:26.392Z,68.62
2018-04-14T00:58:29.707Z,68.37
2018-04-14T00:59:32.270Z,71.22
2018-04-14T01:00:34.848Z,64.93
2018-04-14T01:01:37.378Z,67.20
2018-04-14T01:02:40.704Z,63.63
2018-04-14T01:03:43.236Z,61.05
2018-04-14T01:04:45.767Z,68.35
2018-04-14T01:05:48.327Z,67.68
2018-04-14T01:06:50.861Z,65.97
2018-04-14T01:07:53.387Z,65.20
2018-04-14T01:08:56.677Z,69.03
2018-04-14T01:09:59.212Z,66.90
2018-04-14T01:11:01.780Z,74.32
2018-04-14T01:12:04.304Z,68.35
2018-04-14T01:13:06.844Z,64.45
2018-04-14T01:14:09.407Z,68.97
2018-04-14T01:15:12.713Z,66.65
2018-04-14T01:16:15.251Z,62.22
2018-04-14T01:17:18.545Z,69.50
2018-04-14T01:18:21.880Z,68.22
2018-04-14T01:19:24.443Z,61.40
2018-04-14T01:20:26.969Z,63.97
2018-04-14T01:21:29.504Z,68.18
2018-04-14T01:22:32.036Z,69.68
2018-04-14T01:23:34.563Z,75.22
2018-04-14T01:24:37.119Z,67.43
2018-04-14T01:25:40.461Z,67.15
2018-04-14T01:26:42.973Z,76.43
2018-04-14T01:27:46.270Z,71.95
2018-04-14T01:28:48.799Z,71.47
2018-04-14T01:29:51.367Z,64.53
2018-04-14T01:30:53.940Z,75.62
2018-04-14T01:31:56.472Z,68.22
2018-04-14T01:32:58.993Z,70.28
2018-04-14T01:34:02.283Z,77.00
2018-04-14T01:35:04.812Z,77.87
2018-04-14T01:36:07.396Z,73.18
2018-04-14T01:37:10.695Z,70.05
2018-04-14T01:38:13.986Z,78.80
2018-04-14T01:39:16.504Z,71.93
2018-04-14T01:40:19.024Z,73.40
2018-04-14T01:41:21.575Z,75.47
2018-04-14T01:42:24.858Z,72.97
2018-04-14T01:43:28.143Z,75.20
2018-04-14T01:44:31.441Z,77.22
2018-04-14T01:45:34.005Z,78.78
2018-04-14T01:46:36.575Z,70.00
2018-04-14T01:47:39.092Z,85.18
2018-04-14T01:48:41.625Z,77.05
2018-04-14T01:49:44.160Z,72.37
2018-04-14T01:50:47.483Z,74.20
2018-04-14T01:51:50.032Z,72.12
2018-04-14T01:52:52.555Z,83.05
2018-04-14T01:53:55.084Z,75.18
2018-04-14T01:54:57.612Z,77.85
2018-04-14T01:56:00.140Z,76.95
2018-04-14T01:57:02.692Z,78.93
2018-04-14T01:58:05.992Z,70.75
2018-04-14T01:59:08.553Z,73.95
2018-04-14T02:00:11.093Z,74.55
2018-04-14T02:01:13.628Z,77.37
2018-04-14T02:02:16.184Z,76.72
2018-04-14T02:03:19.481Z,73.65
2018-04-14T02:04:22.017Z,78.57
2018-04-14T02:05:25.362Z,67.72
2018-04-14T02:06:27.896Z,67.47
2018-04-14T02:07:30.427Z,73.97
2018-04-14T02:08:32.955Z,72.80
2018-04-14T02:09:35.486Z,73.87
2018-04-14T02:10:38.814Z,78.25
2018-04-14T02:11:41.340Z,71.43
2018-04-14T02:12:44.639Z,73.40
2018-04-14T02:13:47.176Z,73.93
2018-04-14T02:14:50.503Z,74.50
2018-04-14T02:15:53.032Z,75.03
2018-04-14T02:16:56.326Z,71.03
2018-04-14T02:17:58.867Z,68.50
2018-04-14T02:19:02.163Z,75.87
2018-04-14T02:20:05.490Z,71.43
2018-04-14T02:21:08.019Z,71.32
2018-04-14T02:22:11.330Z,72.12
2018-04-14T02:23:13.862Z,68.78
2018-04-14T02:24:17.176Z,67.37
2018-04-14T02:25:19.736Z,72.40
2018-04-14T02:26:22.268Z,62.70
2018-04-14T02:27:24.789Z,70.95
2018-04-14T02:28:27.308Z,61.63
2018-04-14T02:29:30.599Z,74.30
2018-04-14T02:30:33.931Z,68.37
2018-04-14T02:31:36.459Z,69.70
2018-04-14T02:32:39.756Z,67.68
2018-04-14T02:33:42.284Z,64.80
2018-04-14T02:34:44.843Z,63.25
2018-04-14T02:35:47.404Z,63.83
2018-04-14T02:36:49.978Z,58.35
2018-04-14T02:37:52.509Z,65.97
2018-04-14T02:38:55.031Z,60.12
2018-04-14T02:39:57.611Z,58.13
2018-04-14T02:41:00.132Z,61.90
2018-04-14T02:42:02.659Z,54.40
2018-04-14T02:43:05.187Z,57.80
2018-04-14T02:44:08.484Z,53.20
2018-04-14T02:45:11.158Z,58.03
2018-04-14T02:46:13.690Z,56.70
2018-04-14T02:47:16.237Z,51.67
2018-04-14T02:48:18.761Z,57.67
2018-04-14T02:49:21.293Z,55.20
2018-04-14T02:50:23.863Z,65.25
2018-04-14T02:51:26.397Z,54.30
2018-04-14T02:52:28.929Z,55.95
2018-04-14T02:53:31.456Z,50.45
2018-04-14T02:54:34.019Z,52.05
2018-04-14T02:55:36.543Z,56.95
2018-04-14T02:56:39.095Z,51.08
2018-04-14T02:57:41.634Z,59.88
2018-04-14T02:58:44.964Z,56.17
2018-04-14T02:59:47.481Z,57.10
2018-04-14T03:00:50.004Z,57.28
2018-04-14T03:01:52.581Z,53.30
2018-04-14T03:02:55.103Z,59.22
2018-04-14T03:03:58.396Z,53.08
2018-04-14T03:05:00.926Z,51.28
2018-04-14T03:06:03.455Z,54.90
2018-04-14T03:07:06.028Z,50.25
2018-04-14T03:08:08.568Z,54.60
2018-04-14T03:09:11.117Z,48.45
2018-04-14T03:10:13.653Z,52.83
2018-04-14T03:11:16.196Z,52.00
2018-04-14T03:12:18.769Z,48.70
2018-04-14T03:13:21.308Z,52.95
2018-04-14T03:14:23.842Z,50.20
2018-04-14T03:15:26.373Z,47.70
2018-04-14T03:16:28.900Z,47.90
2018-04-14T03:17:31.460Z,47.53
2018-04-14T03:18:33.986Z,48.10
2018-04-14T03:19:36.520Z,48.30
2018-04-14T03:20:39.050Z,51.17
2018-04-14T03:21:41.588Z,50.85
2018-04-14T03:22:44.139Z,48.83
2018-04-14T03:23:46.707Z,49.92
2018-04-14T03:24:49.219Z,49.72
2018-04-14T03:25:51.743Z,46.63
2018-04-14T03:26:54.272Z,52.20
2018-04-14T03:27:56.793Z,50.05
2018-04-14T03:29:00.856Z,49.63
2018-04-14T03:30:03.376Z,45.80
2018-04-14T03:31:05.911Z,47.58
2018-04-14T03:32:08.449Z,50.67
2018-04-14T03:33:10.971Z,51.45
2018-04-14T03:34:13.537Z,54.10
2018-04-14T03:35:16.864Z,42.58
2018-04-14T03:36:19.389Z,49.45
2018-04-14T03:37:22.686Z,45.28
2018-04-14T03:38:25.207Z,49.63
2018-04-14T03:39:27.773Z,49.15
2018-04-14T03:40:30.313Z,48.47
2018-04-14T03:41:32.847Z,47.45
2018-04-14T03:42:35.367Z,51.08
2018-04-14T03:43:37.899Z,51.00
2018-04-14T03:44:40.456Z,48.03
2018-04-14T03:45:43.030Z,49.13
2018-04-14T03:46:45.562Z,50.53
2018-04-14T03:47:48.842Z,50.10
2018-04-14T03:48:52.136Z,46.78
2018-04-14T03:49:54.705Z,47.80
2018-04-14T03:50:57.232Z,48.40
2018-04-14T03:51:59.787Z,45.40
2018-04-14T03:53:02.326Z,45.25
2018-04-14T03:54:04.842Z,45.50
2018-04-14T03:55:07.399Z,47.53
2018-04-14T03:56:09.964Z,47.42
2018-04-14T03:57:13.280Z,50.00
2018-04-14T03:58:16.572Z,45.17
2018-04-14T03:59:19.111Z,49.90
2018-04-14T04:00:21.673Z,45.03
2018-04-14T04:01:24.200Z,49.47
2018-04-14T04:02:26.737Z,47.08
2018-04-14T04:03:29.272Z,47.75
2018-04-14T04:04:31.830Z,51.40
2018-04-14T04:05:34.387Z,46.72
2018-04-14T04:06:36.959Z,44.30
2018-04-14T04:07:39.495Z,52.60
2018-04-14T04:08:42.020Z,49.85
2018-04-14T04:09:45.354Z,48.50
2018-04-14T04:10:47.883Z,48.42
2018-04-14T04:11:51.210Z,51.10
2018-04-14T04:12:53.734Z,51.50
2018-04-14T04:13:57.068Z,50.03
2018-04-14T04:14:59.598Z,48.87
2018-04-14T04:16:02.134Z,48.38
2018-04-14T04:17:05.434Z,52.22
2018-04-14T04:18:08.768Z,51.85
2018-04-14T04:19:23.251Z,50.40
2018-04-14T04:20:38.299Z,48.45
2018-04-14T04:21:52.668Z,50.12
2018-04-14T04:23:07.005Z,49.05
2018-04-14T04:24:22.163Z,51.30
2018-04-14T04:25:41.941Z,58.75
2018-04-14T04:26:44.470Z,50.50
2018-04-14T04:27:47.004Z,51.17
2018-04-14T04:28:49.548Z,47.88
2018-04-14T04:29:52.118Z,49.20
2018-04-14T04:30:54.660Z,51.70
2018-04-14T04:31:57.951Z,54.30
2018-04-14T04:33:01.267Z,53.78
2018-04-14T04:34:03.804Z,51.97
2018-04-14T04:35:07.101Z,57.58
2018-04-14T04:36:09.659Z,57.60
2018-04-14T04:37:12.197Z,54.95
2018-04-14T04:38:14.742Z,55.67
2018-04-14T04:39:17.276Z,53.85
2018-04-14T04:40:19.800Z,54.90
2018-04-14T04:41:22.365Z,49.00
2018-04-14T04:42:24.891Z,52.38
2018-04-14T04:43:27.417Z,51.58
2018-04-14T04:44:29.957Z,57.47
2018-04-14T04:45:32.503Z,62.42
2018-04-14T04:46:35.064Z,55.80
2018-04-14T04:47:37.583Z,53.47
2018-04-14T04:48:40.878Z,64.00
2018-04-14T04:49:43.409Z,48.87
2018-04-14T04:50:45.938Z,63.70
2018-04-14T04:51:48.499Z,56.22
2018-04-14T04:52:51.025Z,60.03
2018-04-14T04:53:54.319Z,56.58
2018-04-14T04:54:57.613Z,63.75
2018-04-14T04:56:00.149Z,58.13
2018-04-14T04:57:03.479Z,60.67
2018-04-14T04:58:06.055Z,59.30
2018-04-14T04:59:08.580Z,56.80
2018-04-14T05:00:11.883Z,61.05
2018-04-14T05:01:14.425Z,60.33
2018-04-14T05:02:17.751Z,60.55
2018-04-14T05:03:20.317Z,61.05
2018-04-14T05:04:22.843Z,55.47
2018-04-14T05:05:25.397Z,61.40
2018-04-14T05:06:27.979Z,58.97
2018-04-14T05:07:31.273Z,58.97
2018-04-14T05:08:33.808Z,55.72
2018-04-14T05:09:36.326Z,58.67
2018-04-14T05:10:38.867Z,61.40
2018-04-14T05:11:42.205Z,56.75
2018-04-14T05:12:44.731Z,52.50
2018-04-14T05:13:47.292Z,62.03
2018-04-14T05:14:49.847Z,51.70
2018-04-14T05:15:53.140Z,60.00
2018-04-14T05:16:56.432Z,57.20
2018-04-14T05:17:58.956Z,53.80
2018-04-14T05:19:01.518Z,57.62
2018-04-14T05:20:04.074Z,58.30
2018-04-14T05:21:06.595Z,59.00
2018-04-14T05:22:09.123Z,55.60
2018-04-14T05:23:11.654Z,65.60
2018-04-14T05:24:14.183Z,58.72
2018-04-14T05:25:16.793Z,54.03
2018-04-14T05:26:19.329Z,52.22
2018-04-14T05:27:21.880Z,56.33
2018-04-14T05:28:25.170Z,58.05
2018-04-14T05:29:27.701Z,56.55
2018-04-14T05:30:30.271Z,55.78
2018-04-14T05:31:32.791Z,65.12
2018-04-14T05:32:35.308Z,58.72
2018-04-14T05:33:37.846Z,56.45
2018-04-14T05:34:40.398Z,58.87
2018-04-14T05:35:42.930Z,63.33
2018-04-14T05:36:45.468Z,61.42
2018-04-14T05:37:47.997Z,57.38
2018-04-14T05:38:50.564Z,61.42
2018-04-14T05:39:53.102Z,65.78
2018-04-14T05:40:55.630Z,52.83
2018-04-14T05:41:58.159Z,55.63
2018-04-14T05:43:00.684Z,61.67
2018-04-14T05:44:04.012Z,56.30
2018-04-14T05:45:06.581Z,54.65
2018-04-14T05:46:09.140Z,52.65
2018-04-14T05:47:11.677Z,57.85
2018-04-14T05:48:14.959Z,57.58
2018-04-14T05:49:18.251Z,56.00
2018-04-14T05:50:20.829Z,53.92
2018-04-14T05:51:23.375Z,61.22
2018-04-14T05:52:26.672Z,57.47
2018-04-14T05:53:29.212Z,57.80
2018-04-14T05:54:32.525Z,53.65
2018-04-14T05:55:35.104Z,56.03
2018-04-14T05:56:37.631Z,57.20
2018-04-14T05:57:40.926Z,54.95
2018-04-14T05:58:44.218Z,54.17
2018-04-14T05:59:46.780Z,56.08
2018-04-14T06:00:49.322Z,53.92
2018-04-14T06:01:51.931Z,56.70
2018-04-14T06:02:54.496Z,55.38
2018-04-14T06:03:57.029Z,52.90
2018-04-14T06:04:59.557Z,57.00
2018-04-14T06:06:02.090Z,52.20
2018-04-14T06:07:04.635Z,52.53
2018-04-14T06:08:07.969Z,57.13
2018-04-14T06:09:10.501Z,56.25
2018-04-14T06:10:13.035Z,52.88
2018-04-14T06:11:15.556Z,56.03
2018-04-14T06:12:18.080Z,51.83
2018-04-14T06:13:21.409Z,55.88
2018-04-14T06:14:23.936Z,59.85
2018-04-14T06:15:27.230Z,49.83
2018-04-14T06:16:30.550Z,50.67
2018-04-14T06:17:33.075Z,54.88
2018-04-14T06:18:36.364Z,54.70
2018-04-14T06:19:39.657Z,50.65
2018-04-14T06:20:42.176Z,50.90
2018-04-14T06:21:44.740Z,48.15
2018-04-14T06:22:47.263Z,51.13
2018-04-14T06:23:49.787Z,50.22
2018-04-14T06:24:52.320Z,50.63
2018-04-14T06:25:54.848Z,50.42
2018-04-14T06:26:57.411Z,56.17
2018-04-14T06:28:00.700Z,56.20
2018-04-14T06:29:03.226Z,44.90
2018-04-14T06:30:05.750Z,44.83
2018-04-14T06:31:08.271Z,47.38
2018-04-14T06:32:11.594Z,47.75
2018-04-14T06:33:14.160Z,39.15
2018-04-14T06:34:16.691Z,46.30
2018-04-14T06:35:19.265Z,46.15
2018-04-14T06:36:22.555Z,48.38
2018-04-14T06:37:25.847Z,51.15
2018-04-14T06:38:28.377Z,51.08
2018-04-14T06:39:30.895Z,53.25
2018-04-14T06:40:33.464Z,58.03
2018-04-14T06:41:35.984Z,49.22
2018-04-14T06:42:38.513Z,46.13
2018-04-14T06:43:41.044Z,46.15
2018-04-14T06:45:52.557Z,49.15
2018-04-14T06:46:55.092Z,51.97
2018-04-14T06:47:57.627Z,46.30
2018-04-14T06:49:00.200Z,45.10
2018-04-14T06:50:03.512Z,47.08
2018-04-14T06:51:06.045Z,46.10
2018-04-14T06:52:08.578Z,43.15
2018-04-14T06:53:11.112Z,45.03
2018-04-14T06:54:13.680Z,52.90
2018-04-14T06:55:16.214Z,45.53
2018-04-14T06:56:18.754Z,47.05
2018-04-14T06:57:21.285Z,43.05
2018-04-14T06:58:23.816Z,42.95
2018-04-14T06:59:26.389Z,43.72
2018-04-14T07:00:29.700Z,42.95
2018-04-14T07:01:32.224Z,47.20
2018-04-14T07:02:34.753Z,40.70
2018-04-14T07:03:37.289Z,43.22
2018-04-14T07:04:39.868Z,41.13
2018-04-14T07:05:42.392Z,41.78
2018-04-14T07:06:44.968Z,42.70
2018-04-14T07:07:48.270Z,46.45
2018-04-14T07:08:51.565Z,45.80
2018-04-14T07:09:54.293Z,40.92
2018-04-14T07:10:56.832Z,36.40
2018-04-14T07:11:59.413Z,42.53
2018-04-14T07:13:01.940Z,38.03
2018-04-14T07:14:04.476Z,42.58
2018-04-14T07:15:07.763Z,44.28
2018-04-14T07:16:11.063Z,44.83
2018-04-14T07:17:13.636Z,40.22
2018-04-14T07:18:16.177Z,41.20
2018-04-14T07:19:19.477Z,38.30
2018-04-14T07:20:22.004Z,37.90
2018-04-14T07:21:24.539Z,37.05
2018-04-14T07:22:27.125Z,38.35
2018-04-14T07:23:29.655Z,36.00
2018-04-14T07:24:32.180Z,39.28
2018-04-14T07:25:34.714Z,40.38
2018-04-14T07:26:37.996Z,42.75
2018-04-14T07:27:40.575Z,37.42
2018-04-14T07:28:43.100Z,36.50
2018-04-14T07:29:45.631Z,37.88
2018-04-14T07:30:48.176Z,38.70
2018-04-14T07:31:50.706Z,36.78
2018-04-14T07:32:53.272Z,37.60
2018-04-14T07:33:55.815Z,39.00
2018-04-14T07:34:58.352Z,43.25
2018-04-14T07:36:00.872Z,37.20
2018-04-14T07:37:03.396Z,37.40
2018-04-14T07:38:05.964Z,41.75
2018-04-14T07:39:09.264Z,35.85
2018-04-14T07:40:12.615Z,37.35
2018-04-14T07:41:15.154Z,42.40
2018-04-14T07:42:17.701Z,40.33
2018-04-14T07:43:20.233Z,37.67
2018-04-14T07:44:23.531Z,35.50
2018-04-14T07:45:26.101Z,38.70
2018-04-14T07:46:29.393Z,35.13
2018-04-14T07:47:31.919Z,40.75
2018-04-14T07:48:34.494Z,33.13
2018-04-14T07:49:37.789Z,37.95
2018-04-14T07:50:41.091Z,41.33
2018-04-14T07:51:43.674Z,34.42
2018-04-14T07:52:46.941Z,38.47
2018-04-14T07:53:49.506Z,33.13
2018-04-14T07:54:52.043Z,34.58
2018-04-14T07:55:54.627Z,33.42
2018-04-14T07:56:57.919Z,36.15
2018-04-14T07:58:01.225Z,33.28
2018-04-14T07:59:03.766Z,43.00
2018-04-14T08:00:07.059Z,34.65
2018-04-14T08:01:09.628Z,30.05
2018-04-14T08:02:12.198Z,35.08
2018-04-14T08:03:14.731Z,29.95
2018-04-14T08:04:18.029Z,31.90
2018-04-14T08:05:21.315Z,34.80
2018-04-14T08:06:24.619Z,32.15
2018-04-14T08:07:27.178Z,32.55
2018-04-14T08:08:29.703Z,31.20
2018-04-14T08:09:32.227Z,30.92
2018-04-14T08:10:34.743Z,30.67
2018-04-14T08:11:38.100Z,30.08
2018-04-14T08:12:40.648Z,30.77
2018-04-14T08:13:43.179Z,30.00
2018-04-14T08:14:46.475Z,28.38
2018-04-14T08:15:48.991Z,33.47
2018-04-14T08:16:51.557Z,32.92
2018-04-14T08:17:54.075Z,35.17
2018-04-14T08:18:56.605Z,32.55
2018-04-14T08:19:59.135Z,31.35
2018-04-14T08:21:01.661Z,31.98
2018-04-14T08:22:04.239Z,33.85
2018-04-14T08:23:06.779Z,28.83
2018-04-14T08:24:10.089Z,33.65
2018-04-14T08:25:12.625Z,37.22
2018-04-14T08:26:15.148Z,31.58
2018-04-14T08:27:17.725Z,35.10
2018-04-14T08:28:20.243Z,34.38
2018-04-14T08:29:23.528Z,33.83
2018-04-14T08:30:26.820Z,33.17
2018-04-14T08:31:29.348Z,31.20
2018-04-14T08:32:31.914Z,37.53
2018-04-14T08:33:34.441Z,37.47
2018-04-14T08:34:36.973Z,36.58
2018-04-14T08:35:40.264Z,34.22
2018-04-14T08:36:43.549Z,32.55
2018-04-14T08:37:46.863Z,36.65
2018-04-14T08:38:49.397Z,33.80
2018-04-14T08:39:52.725Z,31.25
2018-04-14T08:40:55.258Z,33.88
2018-04-14T08:41:57.795Z,32.10
2018-04-14T08:43:00.321Z,31.15
2018-04-14T08:44:02.853Z,37.63
2018-04-14T08:45:05.436Z,36.20
2018-04-14T08:46:07.960Z,33.15
2018-04-14T08:47:10.488Z,33.90
2018-04-14T08:48:13.004Z,36.65
2018-04-14T08:49:16.327Z,39.08
2018-04-14T08:50:18.857Z,31.55
2018-04-14T08:51:22.143Z,35.78
2018-04-14T08:52:25.472Z,34.85
2018-04-14T08:53:28.002Z,32.35
2018-04-14T08:54:30.523Z,35.17
2018-04-14T08:55:33.049Z,34.85
2018-04-14T08:56:35.610Z,32.88
2018-04-14T08:57:38.139Z,35.60
2018-04-14T08:58:41.463Z,33.08
2018-04-14T08:59:43.991Z,38.83
2018-04-14T09:00:46.555Z,29.52
2018-04-14T09:01:49.881Z,33.50
2018-04-14T09:02:52.420Z,37.80
2018-04-14T09:03:55.705Z,33.30
2018-04-14T09:04:58.997Z,33.20
2018-04-14T09:06:01.612Z,35.55
2018-04-14T09:07:04.113Z,32.83
2018-04-14T09:08:07.447Z,42.13
2018-04-14T09:09:09.984Z,33.45
2018-04-14T09:10:12.510Z,40.00
2018-04-14T09:11:15.033Z,36.20
2018-04-14T09:12:17.573Z,35.63
2018-04-14T09:13:20.139Z,33.47
2018-04-14T09:14:23.433Z,35.67
2018-04-14T09:15:25.993Z,39.35
2018-04-14T09:16:29.285Z,34.58
2018-04-14T09:17:31.808Z,32.28
2018-04-14T09:18:34.369Z,34.90
2018-04-14T09:19:36.931Z,39.53
2018-04-14T09:20:39.463Z,32.90
2018-04-14T09:21:41.992Z,31.58
2018-04-14T09:22:45.288Z,31.55
2018-04-14T09:23:47.825Z,32.70
2018-04-14T09:24:50.383Z,32.85
2018-04-14T09:25:52.908Z,33.35
2018-04-14T09:26:55.435Z,32.40
2018-04-14T09:27:58.737Z,36.95
2018-04-14T09:29:01.272Z,33.72
2018-04-14T09:30:03.923Z,35.63
2018-04-14T09:31:06.441Z,34.40
2018-04-14T09:32:09.728Z,33.95
2018-04-14T09:33:13.014Z,33.55
2018-04-14T09:34:15.536Z,31.85
2018-04-14T09:35:18.089Z,35.50
2018-04-14T09:36:20.636Z,34.22
2018-04-14T09:37:23.163Z,35.35
2018-04-14T09:38:26.447Z,34.20
2018-04-14T09:39:29.785Z,32.83
2018-04-14T09:40:32.307Z,31.52
2018-04-14T09:41:35.599Z,31.45
2018-04-14T09:42:38.129Z,31.40
2018-04-14T09:43:40.659Z,33.28
2018-04-14T09:44:43.223Z,29.92
2018-04-14T09:45:45.793Z,33.05
2018-04-14T09:46:48.351Z,28.33
2018-04-14T09:47:50.900Z,28.35
2018-04-14T09:48:53.440Z,30.05
2018-04-14T09:49:55.976Z,31.45
2018-04-14T09:50:58.543Z,33.63
2018-04-14T09:52:01.075Z,30.42
2018-04-14T09:53:03.605Z,33.10
2018-04-14T09:54:06.142Z,27.20
2018-04-14T09:55:08.674Z,30.20
2018-04-14T09:56:11.345Z,30.40
2018-04-14T09:57:13.879Z,27.65
2018-04-14T09:58:17.211Z,28.30
2018-04-14T09:59:19.745Z,28.17
2018-04-14T10:00:26.892Z,29.95
2018-04-14T10:01:29.460Z,29.60
2018-04-14T10:02:37.735Z,34.60
2018-04-14T10:05:12.041Z,28.62
2018-04-14T10:06:14.563Z,29.60
2018-04-14T10:07:17.856Z,30.80
2018-04-14T10:08:20.391Z,29.58
2018-04-14T10:09:22.972Z,30.98
2018-04-14T10:10:25.525Z,26.33
2018-04-14T10:11:28.821Z,28.38
2018-04-14T10:12:31.346Z,36.50
2018-04-14T10:13:33.867Z,27.62
2018-04-14T10:14:37.187Z,29.33
2018-04-14T10:15:39.728Z,25.92
2018-04-14T10:16:42.320Z,26.75
2018-04-14T10:17:44.868Z,29.40
2018-04-14T10:18:47.433Z,27.08
2018-04-14T10:19:50.008Z,28.50
2018-04-14T10:20:52.545Z,28.85
2018-04-14T10:21:55.833Z,30.45
2018-04-14T10:22:59.125Z,29.23
2018-04-14T10:24:01.663Z,26.75
2018-04-14T10:25:04.226Z,25.17
2018-04-14T10:26:06.792Z,30.35
2018-04-14T10:27:09.324Z,25.62
2018-04-14T10:28:11.843Z,26.02
2018-04-14T10:29:15.131Z,23.45
2018-04-14T10:30:18.416Z,23.98
2018-04-14T10:31:21.073Z,24.25
2018-04-14T10:32:24.394Z,26.27
2018-04-14T10:33:26.936Z,28.90
2018-04-14T10:34:29.472Z,23.27
2018-04-14T10:35:31.992Z,29.92
2018-04-14T10:36:34.553Z,23.48
2018-04-14T10:37:37.093Z,23.40
2018-04-14T10:38:40.388Z,25.92
2018-04-14T10:39:42.916Z,23.20
2018-04-14T10:40:45.454Z,23.65
2018-04-14T10:41:48.036Z,28.35
2018-04-14T10:42:50.565Z,25.90
2018-04-14T10:43:53.130Z,25.00
2018-04-14T10:44:55.703Z,29.73
2018-04-14T10:45:58.235Z,26.63
2018-04-14T10:47:01.530Z,24.00
2018-04-14T10:48:04.865Z,24.93
2018-04-14T10:49:07.391Z,26.93
2018-04-14T10:50:09.957Z,23.93
2018-04-14T10:51:13.236Z,26.10
2018-04-14T10:52:15.769Z,22.53
2018-04-14T10:53:18.334Z,22.27
2018-04-14T10:54:20.886Z,22.50
2018-04-14T10:55:23.416Z,23.27
2018-04-14T10:56:25.980Z,24.73
2018-04-14T10:57:28.505Z,22.77
2018-04-14T10:58:31.059Z,21.47
2018-04-14T10:59:33.589Z,21.37
2018-04-14T11:00:36.150Z,24.03
2018-04-14T11:01:38.690Z,22.63
2018-04-14T11:02:41.983Z,24.57
2018-04-14T11:03:44.551Z,22.03
2018-04-14T11:04:47.089Z,26.80
2018-04-14T11:05:50.420Z,21.65
2018-04-14T11:06:52.995Z,25.33
2018-04-14T11:07:55.556Z,23.00
2018-04-14T11:08:58.085Z,19.40
2018-04-14T11:10:01.377Z,22.67
2018-04-14T11:11:04.670Z,25.93
2018-04-14T11:12:07.199Z,22.30
2018-04-14T11:13:09.747Z,24.90
2018-04-14T11:14:12.309Z,25.53
2018-04-14T11:15:14.868Z,19.67
2018-04-14T11:16:17.936Z,20.50
2018-04-14T11:17:20.462Z,22.37
2018-04-14T11:18:23.800Z,18.27
2018-04-14T11:19:26.327Z,21.80
2018-04-14T11:20:29.631Z,20.97
2018-04-14T11:21:32.168Z,20.90
2018-04-14T11:22:35.478Z,22.57
2018-04-14T11:23:38.048Z,22.53
2018-04-14T11:24:40.603Z,22.07
2018-04-14T11:25:43.128Z,28.33
2018-04-14T11:26:45.664Z,22.80
2018-04-14T11:27:48.216Z,22.40
2018-04-14T11:28:50.773Z,23.43
2018-04-14T11:29:53.311Z,22.23
2018-04-14T11:30:56.603Z,22.07
2018-04-14T11:31:59.894Z,22.10
2018-04-14T11:33:02.423Z,24.77
2018-04-14T11:34:04.982Z,20.30
2018-04-14T11:35:07.503Z,23.00
2018-04-14T11:36:10.031Z,25.50
2018-04-14T11:37:12.559Z,21.77
2018-04-14T11:38:15.087Z,25.03
2018-04-14T11:39:18.419Z,26.13
2018-04-14T11:40:20.987Z,20.67
2018-04-14T11:41:23.522Z,22.67
2018-04-14T11:42:26.060Z,23.50
2018-04-14T11:43:29.384Z,21.83
2018-04-14T11:44:31.897Z,21.80
2018-04-14T11:45:34.457Z,21.83
2018-04-14T11:46:36.980Z,35.23
2018-04-14T11:47:39.504Z,20.43
2018-04-14T11:48:42.020Z,24.43
2018-04-14T11:49:44.557Z,19.63
2018-04-14T11:50:47.127Z,17.67
2018-04-14T11:51:49.661Z,22.40
2018-04-14T11:52:52.192Z,22.30
2018-04-14T11:53:54.721Z,20.90
2018-04-14T11:54:57.249Z,20.57
2018-04-14T11:55:59.830Z,22.23
2018-04-14T11:57:02.363Z,21.27
2018-04-14T11:58:04.900Z,19.63
2018-04-14T11:59:07.427Z,19.70
2018-04-14T12:00:10.744Z,19.77
2018-04-14T12:01:13.334Z,23.77
2018-04-14T12:02:15.869Z,23.45
2018-04-14T12:03:18.414Z,22.42
2018-04-14T12:04:21.727Z,22.83
2018-04-14T12:05:24.254Z,24.52
2018-04-14T12:06:26.827Z,20.52
2018-04-14T12:07:29.365Z,17.70
2018-04-14T12:08:31.901Z,19.35
2018-04-14T12:09:34.421Z,22.30
2018-04-14T12:10:36.952Z,19.73
2018-04-14T12:11:39.521Z,21.10
2018-04-14T12:12:42.111Z,21.40
2018-04-14T12:13:44.666Z,17.80
2018-04-14T12:14:47.200Z,18.58
2018-04-14T12:15:49.737Z,18.55
2018-04-14T12:16:53.040Z,16.90
2018-04-14T12:17:55.617Z,21.67
2018-04-14T12:18:58.139Z,16.80
2018-04-14T12:20:00.689Z,18.25
2018-04-14T12:21:03.220Z,23.63
2018-04-14T12:22:05.739Z,27.80
2018-04-14T12:23:09.068Z,20.08
2018-04-14T12:24:11.621Z,18.23
2018-04-14T12:25:14.153Z,18.27
2018-04-14T12:26:17.059Z,22.00
2018-04-14T12:27:19.595Z,17.20
2018-04-14T12:28:22.151Z,20.13
2018-04-14T12:29:24.696Z,18.80
2018-04-14T12:30:27.226Z,19.97
2018-04-14T12:31:29.762Z,19.60
2018-04-14T12:32:32.305Z,16.87
2018-04-14T12:33:34.884Z,18.70
2018-04-14T12:34:37.424Z,17.70
2018-04-14T12:35:39.957Z,16.10
2018-04-14T12:36:42.490Z,17.40
2018-04-14T12:37:45.061Z,21.73
2018-04-14T12:38:47.594Z,17.00
2018-04-14T12:39:50.133Z,17.83
2018-04-14T12:40:52.662Z,24.43
2018-04-14T12:41:55.225Z,16.77
2018-04-14T12:42:57.781Z,16.73
2018-04-14T12:44:00.332Z,16.80
2018-04-14T12:45:02.898Z,15.83
2018-04-14T12:46:05.437Z,16.30
2018-04-14T12:47:07.964Z,14.67
2018-04-14T12:48:10.515Z,16.40
2018-04-14T12:49:13.041Z,16.80
2018-04-14T12:50:15.570Z,14.37
2018-04-14T12:51:18.864Z,13.40
2018-04-14T12:52:22.159Z,13.63
2018-04-14T12:54:34.368Z,13.03
2018-04-14T12:55:36.897Z,14.10
2018-04-14T12:56:39.418Z,12.10
2018-04-14T12:57:41.943Z,12.97
2018-04-14T12:58:44.504Z,16.13
2018-04-14T12:59:47.812Z,13.93
2018-04-14T13:00:50.341Z,14.17
2018-04-14T13:01:52.872Z,12.87
2018-04-14T13:02:55.427Z,19.60
2018-04-14T13:03:57.999Z,14.10
2018-04-14T13:05:00.522Z,17.43
2018-04-14T13:06:03.811Z,12.27
2018-04-14T13:07:07.101Z,11.33
2018-04-14T13:08:09.630Z,11.83
2018-04-14T13:09:12.188Z,10.33
2018-04-14T13:10:14.713Z,14.10
2018-04-14T13:11:17.233Z,10.93
2018-04-14T13:12:19.796Z,13.40
2018-04-14T13:13:22.359Z,13.73
2018-04-14T13:14:24.896Z,12.33
2018-04-14T13:15:27.425Z,12.47
2018-04-14T13:16:29.968Z,14.00
2018-04-14T13:17:32.500Z,12.27
2018-04-14T13:18:35.845Z,14.53
2018-04-14T13:19:38.402Z,14.97
2018-04-14T13:20:41.701Z,11.60
2018-04-14T13:21:44.238Z,13.47
2018-04-14T13:22:46.784Z,14.20
2018-04-14T13:23:49.348Z,16.57
2018-04-14T13:24:51.963Z,14.07
2018-04-14T13:25:54.504Z,12.97
2018-04-14T13:26:57.039Z,13.90
2018-04-14T13:27:59.573Z,12.77
2018-04-14T13:29:02.105Z,12.43
2018-04-14T13:30:05.445Z,12.03
2018-04-14T13:31:07.989Z,12.43
2018-04-14T13:32:10.506Z,10.83
2018-04-14T13:33:13.035Z,10.53